Home > Products > Valid Products > MTR

000
SAUS46 KSTO 032253
MTRBLU
METAR KBLU 032252Z AUTO 18008KT 10SM CLR 24/06 A3015 RMK AO2 SLP111
T02390061





000
SAUS46 KSTO 032153
MTRBLU
METAR KBLU 032152Z AUTO 21008G15KT 10SM CLR 24/08 A3016 RMK AO2
SLP111 T02440083





000
SAUS46 KSTO 032053
MTRBLU
METAR KBLU 032052Z AUTO 17008KT 10SM CLR 25/07 A3016 RMK AO2 SLP108
T02500067 55000





000
SAUS46 KSTO 031953
MTRBLU
METAR KBLU 031952Z AUTO 10SM CLR 24/07 A3016 RMK AO2 SLP110
T02390072





000
SAUS46 KSTO 031857 COR
MTRBLU
METAR KBLU 031852Z AUTO 16004KT 10SM CLR 24/04 A3016 RMK AO2 SLP111
T02390044





000
SAUS46 KSTO 031857 COR
MTRBLU
METAR KBLU 031852Z AUTO 16004KT 10SM CLR 24/04 A3016 RMK AO2 SLP111
T02390044





000
SAUS46 KSTO 031853
MTRBLU
METAR KBLU 031852Z AUTO 16004KT 10SM CLR 24/04 A3016 RMK AO2 SLP111
T02390044





000
SAUS46 KSTO 031753
MTRBLU
METAR KBLU 031752Z AUTO 18006KT 10SM CLR 23/06 A3016 RMK AO2 SLP115
T02280056 10228 20172 51006





000
SAUS46 KSTO 031653
MTRBLU
METAR KBLU 031652Z AUTO VRB05KT 10SM CLR 22/06 A3016 RMK AO2 SLP116
T02170056





000
SAUS46 KSTO 031553
MTRBLU
METAR KBLU 031552Z AUTO 18003KT 10SM CLR 21/08 A3015 RMK AO2 SLP115
T02110078





000
SAUS46 KSTO 031453
MTRBLU
METAR KBLU 031452Z AUTO 00000KT 10SM CLR 20/08 A3014 RMK AO2 SLP108
T02000083 51007





000
SAUS46 KSTO 031453
MTRBLU
METAR KBLU 031452Z AUTO 00000KT 10SM CLR 20/08 A3014 RMK AO2 SLP108
T02000083 51007





000
SAUS46 KSTO 031353
MTRBLU
METAR KBLU 031352Z AUTO 06003KT 10SM CLR 18/08 A3013 RMK AO2 SLP108
T01780078





000
SAUS46 KSTO 031253
MTRBLU
METAR KBLU 031252Z AUTO 04003KT 10SM CLR 18/07 A3013 RMK AO2 SLP103
T01780067





000
SAUS46 KSTO 031253
MTRBLU
METAR KBLU 031252Z AUTO 04003KT 10SM CLR 18/07 A3013 RMK AO2 SLP103
T01780067





000
SAUS46 KSTO 031153
MTRBLU
METAR KBLU 031152Z AUTO 33003KT 10SM CLR 18/07 A3011 RMK AO2 SLP096
T01780067 10194 20178 50000





000
SAUS46 KSTO 031153
MTRBLU
METAR KBLU 031152Z AUTO 33003KT 10SM CLR 18/07 A3011 RMK AO2 SLP096
T01780067 10194 20178 50000





000
SAUS46 KSTO 031053
MTRBLU
METAR KBLU 031052Z AUTO 31003KT 10SM CLR 18/08 A3012 RMK AO2 SLP096
T01780078





000
SAUS46 KSTO 030953
MTRBLU
METAR KBLU 030952Z AUTO 14003KT 10SM CLR 18/07 A3011 RMK AO2 SLP096
T01830072





000
SAUS46 KSTO 030853
MTRBLU
METAR KBLU 030852Z AUTO 00000KT 10SM CLR 19/08 A3011 RMK AO2 SLP095
T01890078 56008





000
SAUS46 KSTO 030853
MTRBLU
METAR KBLU 030852Z AUTO 00000KT 10SM CLR 19/08 A3011 RMK AO2 SLP095
T01890078 56008





000
SAUS46 KSTO 030753
MTRBLU
METAR KBLU 030752Z AUTO 02003KT 10SM CLR 19/07 A3012 RMK AO2 SLP098
T01890072 402560183





000
SAUS46 KSTO 030654
MTRBLU
METAR KBLU 030652Z AUTO 01003KT 10SM CLR 19/07 A3013 RMK AO2 SLP105
T01890072





000
SAUS46 KSTO 030654
MTRBLU
METAR KBLU 030652Z AUTO 01003KT 10SM CLR 19/07 A3013 RMK AO2 SLP105
T01890072





000
SAUS46 KSTO 030553
MTRBLU
METAR KBLU 030552Z AUTO 35003KT 10SM CLR 19/07 A3014 RMK AO2 SLP111
T01940067 10256 20194 50001





000
SAUS46 KSTO 030454
MTRBLU
METAR KBLU 030452Z AUTO 34004KT 10SM CLR 19/08 A3015 RMK AO2 SLP116
T01940078





000
SAUS46 KSTO 030353
MTRBLU
METAR KBLU 030352Z AUTO 00000KT 10SM CLR 20/08 A3014 RMK AO2 SLP110
T02000078





000
SAUS46 KSTO 030253
MTRBLU
METAR KBLU 030252Z AUTO 27004KT 10SM CLR 22/07 A3014 RMK AO2 SLP107
T02170072 55002





000
SAUS46 KSTO 030153
MTRBLU
METAR KBLU 030152Z AUTO 26006KT 10SM CLR 23/08 A3014 RMK AO2 SLP100
T02330078





000
SAUS46 KSTO 030053
MTRBLU
METAR KBLU 030052Z AUTO 26006KT 10SM CLR 24/07 A3013 RMK AO2 SLP099
T02440072





000
SAUS46 KSTO 022353
MTRBLU
METAR KBLU 022352Z AUTO 24009G15KT 10SM CLR 25/07 A3014 RMK AO2
SLP100 T02500072 10256 20217 56009





000
SAUS46 KSTO 022253
MTRBLU
METAR KBLU 022252Z AUTO 22007KT 10SM CLR 25/07 A3016 RMK AO2 SLP104
T02500072





000
SAUS46 KSTO 022153
MTRBLU
METAR KBLU 022152Z AUTO 26008KT 230V310 10SM OVC100 24/08 A3016 RMK
AO2 LTG DSNT NE AND E SLP107 T02440083





000
SAUS46 KSTO 022053
MTRBLU
METAR KBLU 022052Z AUTO 28007KT 10SM FEW120 24/09 A3018 RMK AO2 LTG
DSNT E SLP108 T02440089 58004





000
SAUS46 KSTO 022053
MTRBLU
METAR KBLU 022052Z AUTO 28007KT 10SM FEW120 24/09 A3018 RMK AO2 LTG
DSNT E SLP108 T02440089 58004





000
SAUS46 KSTO 021953
MTRBLU
METAR KBLU 021952Z AUTO 22006KT 10SM CLR 24/09 A3019 RMK AO2 SLP118
T02390089





000
SAUS46 KSTO 021853
MTRBLU
METAR KBLU 021852Z AUTO 20005KT 10SM CLR 23/08 A3019 RMK AO2 SLP122
T02330083





000
SAUS46 KSTO 021853
MTRBLU
METAR KBLU 021852Z AUTO 20005KT 10SM CLR 23/08 A3019 RMK AO2 SLP122
T02330083





000
SAUS46 KSTO 021753
MTRBLU
METAR KBLU 021752Z AUTO VRB05KT 10SM FEW038 SCT110 22/08 A3019 RMK
AO2 SLP128 60000 T02170078 10217 20183 52005





000
SAUS46 KSTO 021753
MTRBLU
METAR KBLU 021752Z AUTO VRB05KT 10SM FEW038 SCT110 22/08 A3019 RMK
AO2 SLP128 60000 T02170078 10217 20183 52005





000
SAUS46 KSTO 021653
MTRBLU
METAR KBLU 021652Z AUTO 00000KT 10SM SCT075 OVC100 21/09 A3018 RMK
AO2 SLP125 T02060094





000
SAUS46 KSTO 021653
MTRBLU
METAR KBLU 021652Z AUTO 00000KT 10SM SCT075 OVC100 21/09 A3018 RMK
AO2 SLP125 T02060094





000
SAUS46 KSTO 021553
MTRBLU
METAR KBLU 021552Z AUTO 00000KT 10SM SCT110 21/09 A3018 RMK AO2
SLP122 T02060094





000
SAUS46 KSTO 021453
MTRBLU
METAR KBLU 021452Z AUTO 00000KT 10SM CLR 20/08 A3017 RMK AO2
RAB06E19 SLP116 P0000 60000 T02000078 53006





000
SAUS46 KSTO 021353
MTRBLU
METAR KBLU 021352Z AUTO 17003KT 10SM SCT110 21/07 A3016 RMK AO2
SLP101 T02110067





000
SAUS46 KSTO 021253
MTRBLU
METAR KBLU 021252Z AUTO 09003KT 10SM CLR 19/07 A3015 RMK AO2 SLP103
T01940072





000
SAUS46 KSTO 021153
MTRBLU
METAR KBLU 021152Z AUTO 00000KT 10SM CLR 20/08 A3015 RMK AO2 SLP100
70001 T02000078 10228 20189 58006





000
SAUS46 KSTO 021053
MTRBLU
METAR KBLU 021052Z AUTO 00000KT 10SM CLR 20/08 A3017 RMK AO2 SLP102
T02000078





000
SAUS46 KSTO 020953
MTRBLU
METAR KBLU 020952Z AUTO 19004KT 10SM CLR 21/08 A3016 RMK AO2 SLP101
T02060083





000
SAUS46 KSTO 020853
MTRBLU
METAR KBLU 020852Z AUTO 08003KT 10SM CLR 22/09 A3017 RMK AO2 LTG
DSNT N AND NW SLP101 T02170094 58010





000
SAUS46 KSTO 020753
MTRBLU
METAR KBLU 020752Z AUTO 06004KT 10SM SCT120 20/08 A3019 RMK AO2 LTG
DSNT N AND NE SLP110 T02000078 402780189





000
SAUS46 KSTO 020753
MTRBLU
METAR KBLU 020752Z AUTO 06004KT 10SM SCT120 20/08 A3019 RMK AO2 LTG
DSNT N AND NE SLP110 T02000078 402780189





000
SAUS46 KSTO 020653
MTRBLU
METAR KBLU 020652Z AUTO 10003KT 10SM BKN110 19/09 A3020 RMK AO2 LTG
DSNT E SLP119 T01940089





000
SAUS46 KSTO 020653
MTRBLU
METAR KBLU 020652Z AUTO 10003KT 10SM BKN110 19/09 A3020 RMK AO2 LTG
DSNT E SLP119 T01940089





000
SAUS46 KSTO 020553
MTRBLU
METAR KBLU 020552Z AUTO 11003KT 10SM SCT110 19/09 A3021 RMK AO2
SLP122 T01940089 10267 20189 51010





000
SAUS46 KSTO 020553
MTRBLU
METAR KBLU 020552Z AUTO 11003KT 10SM SCT110 19/09 A3021 RMK AO2
SLP122 T01940089 10267 20189 51010





000
SAUS46 KSTO 020453
MTRBLU
METAR KBLU 020452Z AUTO 17003KT 10SM CLR 21/09 A3021 RMK AO2 SLP133
T02060089





000
SAUS46 KSTO 020453
MTRBLU
METAR KBLU 020452Z AUTO 17003KT 10SM CLR 21/09 A3021 RMK AO2 SLP133
T02060089





000
SAUS46 KSTO 020353
MTRBLU
METAR KBLU 020352Z AUTO 24004KT 10SM CLR 21/09 A3018 RMK AO2 SLP116
T02110094





000
SAUS46 KSTO 020253
MTRBLU
METAR KBLU 020252Z AUTO 23003KT 10SM CLR 23/10 A3017 RMK AO2 SLP116
T02280100 55002





000
SAUS46 KSTO 020153
MTRBLU
METAR KBLU 020152Z AUTO 21005KT 10SM CLR 25/09 A3017 RMK AO2 SLP109
T02500094





000
SAUS46 KSTO 020053
MTRBLU
METAR KBLU 020052Z AUTO 24005KT 10SM CLR 26/09 A3017 RMK AO2 SLP104
T02610094





000
SAUS46 KSTO 020053
MTRBLU
METAR KBLU 020052Z AUTO 24005KT 10SM CLR 26/09 A3017 RMK AO2 SLP104
T02610094





000
SAUS46 KSTO 012353
MTRBLU
METAR KBLU 012352Z AUTO VRB06KT 7SM FEW120 27/09 A3018 RMK AO2 LTG
DSNT N AND NE SLP100 T02670094 10278 20256 56007





000
SAUS46 KSTO 012353
MTRBLU
METAR KBLU 012352Z AUTO VRB06KT 7SM FEW120 27/09 A3018 RMK AO2 LTG
DSNT N AND NE SLP100 T02670094 10278 20256 56007





000
SAUS46 KSTO 012253
MTRBLU
METAR KBLU 012252Z AUTO 28007KT 10SM CLR 27/10 A3018 RMK AO2 SLP099
T02720100





000
SAUS46 KSTO 012229
MTRBLU
SPECI KBLU 012228Z AUTO 26007KT 210V300 10SM CLR 27/10 A3018 RMK AO2
T02670100





000
SAUS46 KSTO 012229
MTRBLU
SPECI KBLU 012228Z AUTO 26007KT 210V300 10SM CLR 27/10 A3018 RMK AO2
T02670100





000
SAUS46 KSTO 012220
MTRBLU
SPECI KBLU 012219Z AUTO VRB06KT 2 1/2SM HZ CLR 27/10 A3019 RMK AO2
T02670100





000
SAUS46 KSTO 012220
MTRBLU
SPECI KBLU 012219Z AUTO VRB06KT 2 1/2SM HZ CLR 27/10 A3019 RMK AO2
T02670100





000
SAUS46 KSTO 012153
MTRBLU
METAR KBLU 012152Z AUTO 23010KT 10SM CLR 27/11 A3019 RMK AO2 SLP105
T02670106





000
SAUS46 KSTO 012053
MTRBLU
METAR KBLU 012052Z AUTO 27009KT 10SM CLR 27/11 A3020 RMK AO2 SLP103
T02720106 58009





000
SAUS46 KSTO 011954
MTRBLU
METAR KBLU 011952Z AUTO VRB03KT 10SM CLR 27/09 A3022 RMK AO2 SLP108
T02720094





000
SAUS46 KSTO 011954
MTRBLU
METAR KBLU 011952Z AUTO VRB03KT 10SM CLR 27/09 A3022 RMK AO2 SLP108
T02720094





000
SAUS46 KSTO 011853
MTRBLU
METAR KBLU 011852Z AUTO 20006KT 10SM CLR 26/11 A3023 RMK AO2 SLP112
T02610106





000
SAUS46 KSTO 011853
MTRBLU
METAR KBLU 011852Z AUTO 20006KT 10SM CLR 26/11 A3023 RMK AO2 SLP112
T02610106





000
SAUS46 KSTO 011753
MTRBLU
METAR KBLU 011752Z AUTO VRB03KT 10SM CLR 26/11 A3024 RMK AO2 SLP117
60001 T02560111 10256 20194 58002





000
SAUS46 KSTO 011753
MTRBLU
METAR KBLU 011752Z AUTO VRB03KT 10SM CLR 26/11 A3024 RMK AO2 SLP117
60001 T02560111 10256 20194 58002





000
SAUS46 KSTO 011654
MTRBLU
METAR KBLU 011652Z AUTO 12003KT 10SM BKN100 20/14 A3025 RMK AO2
RAB05E51 SLP140 P0001 T02000139





000
SAUS46 KSTO 011554
MTRBLU
METAR KBLU 011552Z AUTO VRB03KT 10SM SCT110 23/10 A3025 RMK AO2
SLP129 T02330100





000
SAUS46 KSTO 011454
MTRBLU
METAR KBLU 011452Z AUTO 11004KT 10SM OVC110 21/08 A3025 RMK AO2
SLP135 T02060078 51013





000
SAUS46 KSTO 011454
MTRBLU
METAR KBLU 011452Z AUTO 11004KT 10SM OVC110 21/08 A3025 RMK AO2
SLP135 T02060078 51013





000
SAUS46 KSTO 011353
MTRBLU
METAR KBLU 011352Z AUTO 11003KT 10SM CLR 21/07 A3023 RMK AO2 SLP127
T02060072





000
SAUS46 KSTO 011353
MTRBLU
METAR KBLU 011352Z AUTO 11003KT 10SM CLR 21/07 A3023 RMK AO2 SLP127
T02060072





000
SAUS46 KSTO 011253
MTRBLU
METAR KBLU 011252Z AUTO 14003KT 10SM CLR 21/07 A3022 RMK AO2 SLP120
T02060072





000
SAUS46 KSTO 011253
MTRBLU
METAR KBLU 011252Z AUTO 14003KT 10SM CLR 21/07 A3022 RMK AO2 SLP120
T02060072





000
SAUS46 KSTO 011154
MTRBLU
METAR KBLU 011152Z AUTO 00000KT 10SM FEW120 23/03 A3020 RMK AO2
SLP110 T02280033 10256 20228 55001





000
SAUS46 KSTO 011053
MTRBLU
METAR KBLU 011052Z AUTO 00000KT 10SM CLR 24/01 A3019 RMK AO2 SLP108
T02390011





000
SAUS46 KSTO 010953
MTRBLU
METAR KBLU 010952Z AUTO 00000KT 10SM CLR 23/02 A3020 RMK AO2 SLP110
T02330022





000
SAUS46 KSTO 010853
MTRBLU
METAR KBLU 010852Z AUTO 34005KT 10SM CLR 24/02 A3020 RMK AO2 SLP121
T02440017 58005





000
SAUS46 KSTO 010753
MTRBLU
METAR KBLU 010752Z AUTO 00000KT 10SM CLR 25/01 A3022 RMK AO2 SLP104
T02500006 402940200





000
SAUS46 KSTO 010653
MTRBLU
METAR KBLU 010652Z AUTO 00000KT 10SM CLR 26/01 A3022 RMK AO2 SLP108
T02560006





000
SAUS46 KSTO 010653
MTRBLU
METAR KBLU 010652Z AUTO 00000KT 10SM CLR 26/01 A3022 RMK AO2 SLP108
T02560006





000
SAUS46 KSTO 010553
MTRBLU
METAR KBLU 010552Z AUTO 00000KT 10SM BKN120 25/03 A3022 RMK AO2
SLP117 T02500028 10272 20233 50000





000
SAUS46 KSTO 010453
MTRBLU
METAR KBLU 010452Z AUTO 08003KT 10SM CLR 24/03 A3023 RMK AO2 SLP123
T02390033





000
SAUS46 KSTO 010353
MTRBLU
METAR KBLU 010352Z AUTO 05003KT 10SM SCT110 25/04 A3022 RMK AO2
SLP119 T02500039





000
SAUS46 KSTO 010253
MTRBLU
METAR KBLU 010252Z AUTO 04004KT 10SM CLR 24/05 A3022 RMK AO2 SLP121
T02440050 56010





000
SAUS46 KSTO 010153
MTRBLU
METAR KBLU 010152Z AUTO 05006KT 10SM CLR 26/05 A3022 RMK AO2 SLP122
T02560050





000
SAUS46 KSTO 010153
MTRBLU
METAR KBLU 010152Z AUTO 05006KT 10SM CLR 26/05 A3022 RMK AO2 SLP122
T02560050





000
SAUS46 KSTO 010053
MTRBLU
METAR KBLU 010052Z AUTO VRB06KT 10SM FEW060 BKN090 BKN110 27/06
A3024 RMK AO2 SLP123 T02670061





000
SAUS46 KSTO 312353
MTRBLU
METAR KBLU 312352Z AUTO VRB06KT 10SM BKN100 26/06 A3026 RMK AO2
SLP130 60000 T02610061 10294 20200 56019





    US Dept of Commerce
    National Oceanic and Atmospheric Administration
    National Weather Service
    1325 East West Highway
    Silver Spring, MD 20910
    Page Author: NWS Internet Services Team
Disclaimer
Information Quality
Credits
Glossary
Privacy Policy
Freedom of Information Act (FOIA)
About Us
Career Opportunities